sensor_id;sensor_type;location;lat;lon;timestamp;temperature;humidity
1005;DHT22;491;53.480;10.174;2023-01-25T00:04:20;0.40;99.90
1005;DHT22;491;53.480;10.174;2023-01-25T00:06:46;0.40;99.90
1005;DHT22;491;53.480;10.174;2023-01-25T00:09:12;0.50;99.90
1005;DHT22;491;53.480;10.174;2023-01-25T00:11:38;0.40;99.90
1005;DHT22;491;53.480;10.174;2023-01-25T00:14:04;0.30;99.90
1005;DHT22;491;53.480;10.174;2023-01-25T00:16:30;0.60;99.90
1005;DHT22;491;53.480;10.174;2023-01-25T00:18:56;0.40;99.90
1005;DHT22;491;53.480;10.174;2023-01-25T00:21:23;0.40;99.90
1005;DHT22;491;53.480;10.174;2023-01-25T00:23:49;0.40;99.90
1005;DHT22;491;53.480;10.174;2023-01-25T00:26:15;0.20;99.90
1005;DHT22;491;53.480;10.174;2023-01-25T00:28:41;0.30;99.90
1005;DHT22;491;53.480;10.174;2023-01-25T00:31:10;0.40;99.90
1005;DHT22;491;53.480;10.174;2023-01-25T00:33:49;0.30;99.90
1005;DHT22;491;53.480;10.174;2023-01-25T00:36:31;0.30;99.90
1005;DHT22;491;53.480;10.174;2023-01-25T00:39:00;0.40;99.90
1005;DHT22;491;53.480;10.174;2023-01-25T00:41:26;0.30;99.90
1005;DHT22;491;53.480;10.174;2023-01-25T00:43:51;0.20;99.90
1005;DHT22;491;53.480;10.174;2023-01-25T00:46:17;0.40;99.90
1005;DHT22;491;53.480;10.174;2023-01-25T00:48:43;0.40;99.90
1005;DHT22;491;53.480;10.174;2023-01-25T00:51:08;0.40;99.90
1005;DHT22;491;53.480;10.174;2023-01-25T00:53:34;0.40;99.90
1005;DHT22;491;53.480;10.174;2023-01-25T00:56:00;0.30;99.90
1005;DHT22;491;53.480;10.174;2023-01-25T00:58:25;0.30;99.90
1005;DHT22;491;53.480;10.174;2023-01-25T01:00:54;0.40;99.90
1005;DHT22;491;53.480;10.174;2023-01-25T01:03:20;0.50;99.90
1005;DHT22;491;53.480;10.174;2023-01-25T01:05:46;0.40;99.90
1005;DHT22;491;53.480;10.174;2023-01-25T01:08:13;0.40;99.90
1005;DHT22;491;53.480;10.174;2023-01-25T01:10:39;0.40;99.90
1005;DHT22;491;53.480;10.174;2023-01-25T01:13:06;0.40;99.90
1005;DHT22;491;53.480;10.174;2023-01-25T01:15:35;0.20;99.90
1005;DHT22;491;53.480;10.174;2023-01-25T01:18:01;0.20;99.90
1005;DHT22;491;53.480;10.174;2023-01-25T01:20:26;0.20;99.90
1005;DHT22;491;53.480;10.174;2023-01-25T01:22:52;0.10;99.90
1005;DHT22;491;53.480;10.174;2023-01-25T01:25:19;0.20;99.90
1005;DHT22;491;53.480;10.174;2023-01-25T01:27:45;0.20;99.90
1005;DHT22;491;53.480;10.174;2023-01-25T01:30:13;0.10;99.90
1005;DHT22;491;53.480;10.174;2023-01-25T01:32:39;0.30;99.90
1005;DHT22;491;53.480;10.174;2023-01-25T01:35:05;0.30;99.90
1005;DHT22;491;53.480;10.174;2023-01-25T01:37:31;0.40;99.90
1005;DHT22;491;53.480;10.174;2023-01-25T01:39:56;0.40;99.90
1005;DHT22;491;53.480;10.174;2023-01-25T01:42:22;0.30;99.90
1005;DHT22;491;53.480;10.174;2023-01-25T01:44:50;0.30;99.90
1005;DHT22;491;53.480;10.174;2023-01-25T01:47:38;0.30;99.90
1005;DHT22;491;53.480;10.174;2023-01-25T01:50:18;0.30;99.90
1005;DHT22;491;53.480;10.174;2023-01-25T01:52:45;0.20;99.90
1005;DHT22;491;53.480;10.174;2023-01-25T01:55:25;0.60;99.90
1005;DHT22;491;53.480;10.174;2023-01-25T01:57:54;0.20;99.90
1005;DHT22;491;53.480;10.174;2023-01-25T02:00:48;0.20;99.90
1005;DHT22;491;53.480;10.174;2023-01-25T02:03:15;0.30;99.90
1005;DHT22;491;53.480;10.174;2023-01-25T02:06:00;0.30;99.90
1005;DHT22;491;53.480;10.174;2023-01-25T02:08:27;0.20;99.90
1005;DHT22;491;53.480;10.174;2023-01-25T02:10:58;0.20;99.90
1005;DHT22;491;53.480;10.174;2023-01-25T02:13:27;0.20;99.90
1005;DHT22;491;53.480;10.174;2023-01-25T02:15:53;0.10;99.90
1005;DHT22;491;53.480;10.174;2023-01-25T02:18:21;0.20;99.90
1005;DHT22;491;53.480;10.174;2023-01-25T02:20:51;0.20;99.90
1005;DHT22;491;53.480;10.174;2023-01-25T02:25:59;0.00;99.90
1005;DHT22;491;53.480;10.174;2023-01-25T02:28:49;-0.10;99.90
1005;DHT22;491;53.480;10.174;2023-01-25T02:31:12;-0.20;99.90
1005;DHT22;491;53.480;10.174;2023-01-25T02:33:38;-0.20;99.90
1005;DHT22;491;53.480;10.174;2023-01-25T02:38:42;-0.20;99.90
1005;DHT22;491;53.480;10.174;2023-01-25T02:41:14;-0.10;99.90
1005;DHT22;491;53.480;10.174;2023-01-25T02:43:54;-0.20;99.90
1005;DHT22;491;53.480;10.174;2023-01-25T02:46:27;-0.10;99.90
1005;DHT22;491;53.480;10.174;2023-01-25T02:48:54;-0.10;99.90
1005;DHT22;491;53.480;10.174;2023-01-25T02:51:22;-0.20;99.90
1005;DHT22;491;53.480;10.174;2023-01-25T02:53:51;-0.30;99.90
1005;DHT22;491;53.480;10.174;2023-01-25T02:56:17;-0.30;99.90
1005;DHT22;491;53.480;10.174;2023-01-25T02:58:43;-0.30;99.90
1005;DHT22;491;53.480;10.174;2023-01-25T03:01:09;-0.30;99.90
1005;DHT22;491;53.480;10.174;2023-01-25T03:03:35;-0.40;99.90
1005;DHT22;491;53.480;10.174;2023-01-25T03:08:27;-0.30;99.90
1005;DHT22;491;53.480;10.174;2023-01-25T03:10:57;-0.30;99.90
1005;DHT22;491;53.480;10.174;2023-01-25T03:13:23;-0.30;99.90
1005;DHT22;491;53.480;10.174;2023-01-25T03:15:48;-0.40;99.90
1005;DHT22;491;53.480;10.174;2023-01-25T03:18:14;-0.30;99.90
1005;DHT22;491;53.480;10.174;2023-01-25T03:20:39;-0.20;99.90
1005;DHT22;491;53.480;10.174;2023-01-25T03:23:05;-0.30;99.90
1005;DHT22;491;53.480;10.174;2023-01-25T03:25:30;-0.40;99.90
1005;DHT22;491;53.480;10.174;2023-01-25T03:27:56;-0.30;99.90
1005;DHT22;491;53.480;10.174;2023-01-25T03:30:22;-0.40;99.90
1005;DHT22;491;53.480;10.174;2023-01-25T03:32:47;-0.30;99.90
1005;DHT22;491;53.480;10.174;2023-01-25T03:35:13;-0.30;99.90
1005;DHT22;491;53.480;10.174;2023-01-25T03:37:38;-0.30;99.90
1005;DHT22;491;53.480;10.174;2023-01-25T03:40:04;-0.30;99.90
1005;DHT22;491;53.480;10.174;2023-01-25T03:42:30;-0.80;99.90
1005;DHT22;491;53.480;10.174;2023-01-25T03:44:55;-0.30;99.90
1005;DHT22;491;53.480;10.174;2023-01-25T03:47:21;-0.10;99.90
1005;DHT22;491;53.480;10.174;2023-01-25T03:49:46;-0.30;99.90
1005;DHT22;491;53.480;10.174;2023-01-25T03:52:12;-0.30;99.90
1005;DHT22;491;53.480;10.174;2023-01-25T03:54:40;-0.20;99.90
1005;DHT22;491;53.480;10.174;2023-01-25T03:57:05;-0.40;99.90
1005;DHT22;491;53.480;10.174;2023-01-25T03:59:31;-0.20;99.90
1005;DHT22;491;53.480;10.174;2023-01-25T04:01:56;-0.30;99.90
1005;DHT22;491;53.480;10.174;2023-01-25T04:04:22;-0.30;99.90
1005;DHT22;491;53.480;10.174;2023-01-25T04:06:47;-0.40;99.90
1005;DHT22;491;53.480;10.174;2023-01-25T04:09:13;-0.40;99.90
1005;DHT22;491;53.480;10.174;2023-01-25T04:11:39;-0.40;99.90
1005;DHT22;491;53.480;10.174;2023-01-25T04:14:05;-0.30;99.90
1005;DHT22;491;53.480;10.174;2023-01-25T04:16:30;-0.40;99.90
1005;DHT22;491;53.480;10.174;2023-01-25T04:18:56;-0.20;99.90
1005;DHT22;491;53.480;10.174;2023-01-25T04:21:24;-0.30;99.90
1005;DHT22;491;53.480;10.174;2023-01-25T04:23:50;-0.30;99.90
1005;DHT22;491;53.480;10.174;2023-01-25T04:26:15;-0.20;99.90
1005;DHT22;491;53.480;10.174;2023-01-25T04:28:41;-0.30;99.90
1005;DHT22;491;53.480;10.174;2023-01-25T04:31:06;-0.20;99.90
1005;DHT22;491;53.480;10.174;2023-01-25T04:33:33;-0.20;99.90
1005;DHT22;491;53.480;10.174;2023-01-25T04:35:59;-0.20;99.90
1005;DHT22;491;53.480;10.174;2023-01-25T04:38:25;-0.10;99.90
1005;DHT22;491;53.480;10.174;2023-01-25T04:40:54;-0.20;99.90
1005;DHT22;491;53.480;10.174;2023-01-25T04:43:20;-0.30;99.90
1005;DHT22;491;53.480;10.174;2023-01-25T04:45:48;-0.20;99.90
1005;DHT22;491;53.480;10.174;2023-01-25T04:48:15;-0.30;99.90
1005;DHT22;491;53.480;10.174;2023-01-25T04:50:41;-0.40;99.90
1005;DHT22;491;53.480;10.174;2023-01-25T04:53:09;-0.40;99.90
1005;DHT22;491;53.480;10.174;2023-01-25T04:55:35;-0.30;99.90
1005;DHT22;491;53.480;10.174;2023-01-25T04:58:02;-0.30;99.90
1005;DHT22;491;53.480;10.174;2023-01-25T05:00:29;-0.30;99.90
1005;DHT22;491;53.480;10.174;2023-01-25T05:02:55;-0.30;99.90
1005;DHT22;491;53.480;10.174;2023-01-25T05:05:21;-0.40;99.90
1005;DHT22;491;53.480;10.174;2023-01-25T05:07:46;-0.40;99.90
1005;DHT22;491;53.480;10.174;2023-01-25T05:10:12;-0.30;99.90
1005;DHT22;491;53.480;10.174;2023-01-25T05:12:38;-0.20;99.90
1005;DHT22;491;53.480;10.174;2023-01-25T05:15:04;-0.30;99.90
1005;DHT22;491;53.480;10.174;2023-01-25T05:17:30;-0.20;99.90
1005;DHT22;491;53.480;10.174;2023-01-25T05:19:55;-0.20;99.90
1005;DHT22;491;53.480;10.174;2023-01-25T05:22:21;-0.40;99.90
1005;DHT22;491;53.480;10.174;2023-01-25T05:24:47;-0.20;99.90
1005;DHT22;491;53.480;10.174;2023-01-25T05:27:15;-0.30;99.90
1005;DHT22;491;53.480;10.174;2023-01-25T05:29:42;-0.30;99.90
1005;DHT22;491;53.480;10.174;2023-01-25T05:32:11;-0.30;99.90
1005;DHT22;491;53.480;10.174;2023-01-25T05:34:37;-0.30;99.90
1005;DHT22;491;53.480;10.174;2023-01-25T05:37:04;-0.20;99.90
1005;DHT22;491;53.480;10.174;2023-01-25T05:39:30;-0.20;99.90
1005;DHT22;491;53.480;10.174;2023-01-25T05:41:56;-0.30;99.90
1005;DHT22;491;53.480;10.174;2023-01-25T05:44:22;-0.20;99.90
1005;DHT22;491;53.480;10.174;2023-01-25T05:46:48;-0.30;99.90
1005;DHT22;491;53.480;10.174;2023-01-25T05:49:14;-0.20;99.90
1005;DHT22;491;53.480;10.174;2023-01-25T05:51:40;-0.40;99.90
1005;DHT22;491;53.480;10.174;2023-01-25T05:54:14;-0.20;99.90
1005;DHT22;491;53.480;10.174;2023-01-25T05:56:44;-0.30;99.90
1005;DHT22;491;53.480;10.174;2023-01-25T05:59:10;-0.20;99.90
1005;DHT22;491;53.480;10.174;2023-01-25T06:01:36;-0.30;99.90
1005;DHT22;491;53.480;10.174;2023-01-25T06:04:02;-0.40;99.90
1005;DHT22;491;53.480;10.174;2023-01-25T06:06:28;-0.10;99.90
1005;DHT22;491;53.480;10.174;2023-01-25T06:09:13;-0.30;99.90
1005;DHT22;491;53.480;10.174;2023-01-25T06:12:14;-0.20;99.90
1005;DHT22;491;53.480;10.174;2023-01-25T06:15:00;-0.30;99.90
1005;DHT22;491;53.480;10.174;2023-01-25T06:17:27;-0.30;99.90
1005;DHT22;491;53.480;10.174;2023-01-25T06:19:53;-0.20;99.90
1005;DHT22;491;53.480;10.174;2023-01-25T06:22:19;-0.20;99.90
1005;DHT22;491;53.480;10.174;2023-01-25T06:24:44;-0.20;99.90
1005;DHT22;491;53.480;10.174;2023-01-25T06:27:09;-0.20;99.90
1005;DHT22;491;53.480;10.174;2023-01-25T06:29:39;-0.20;99.90
1005;DHT22;491;53.480;10.174;2023-01-25T06:32:05;-0.20;99.90
1005;DHT22;491;53.480;10.174;2023-01-25T06:34:30;-0.10;99.90
1005;DHT22;491;53.480;10.174;2023-01-25T06:36:56;-0.10;99.90
1005;DHT22;491;53.480;10.174;2023-01-25T06:39:21;-0.20;99.90
1005;DHT22;491;53.480;10.174;2023-01-25T06:41:47;-0.10;99.90
1005;DHT22;491;53.480;10.174;2023-01-25T06:44:12;-0.20;99.90
1005;DHT22;491;53.480;10.174;2023-01-25T06:46:37;-0.30;99.90
1005;DHT22;491;53.480;10.174;2023-01-25T06:49:03;-0.30;99.90
1005;DHT22;491;53.480;10.174;2023-01-25T06:51:28;-0.20;99.90
1005;DHT22;491;53.480;10.174;2023-01-25T06:53:54;-0.20;99.90
1005;DHT22;491;53.480;10.174;2023-01-25T06:56:26;-0.20;99.90
1005;DHT22;491;53.480;10.174;2023-01-25T06:58:52;-0.40;99.90
1005;DHT22;491;53.480;10.174;2023-01-25T07:01:20;-0.30;99.90
1005;DHT22;491;53.480;10.174;2023-01-25T07:03:50;-0.20;99.90
1005;DHT22;491;53.480;10.174;2023-01-25T07:06:16;-0.30;99.90
1005;DHT22;491;53.480;10.174;2023-01-25T07:08:42;-0.20;99.90
1005;DHT22;491;53.480;10.174;2023-01-25T07:11:09;-0.20;99.90
1005;DHT22;491;53.480;10.174;2023-01-25T07:13:41;-0.30;99.90
1005;DHT22;491;53.480;10.174;2023-01-25T07:16:16;-0.20;99.90
1005;DHT22;491;53.480;10.174;2023-01-25T07:18:42;-0.20;99.90
1005;DHT22;491;53.480;10.174;2023-01-25T07:21:17;-0.30;99.90
1005;DHT22;491;53.480;10.174;2023-01-25T07:23:44;-0.30;99.90
1005;DHT22;491;53.480;10.174;2023-01-25T07:26:19;-0.20;99.90
1005;DHT22;491;53.480;10.174;2023-01-25T07:28:45;-0.10;99.90
1005;DHT22;491;53.480;10.174;2023-01-25T07:31:11;-0.20;99.90
1005;DHT22;491;53.480;10.174;2023-01-25T07:33:37;-0.20;99.90
1005;DHT22;491;53.480;10.174;2023-01-25T07:36:04;-0.10;99.90
1005;DHT22;491;53.480;10.174;2023-01-25T07:38:30;-0.10;99.90
1005;DHT22;491;53.480;10.174;2023-01-25T07:40:58;-0.20;99.90
1005;DHT22;491;53.480;10.174;2023-01-25T07:43:25;-0.20;99.90
1005;DHT22;491;53.480;10.174;2023-01-25T07:45:51;-0.10;99.90
1005;DHT22;491;53.480;10.174;2023-01-25T07:48:18;-0.20;99.90
1005;DHT22;491;53.480;10.174;2023-01-25T07:50:44;-0.20;99.90
1005;DHT22;491;53.480;10.174;2023-01-25T07:53:14;-0.20;99.90
1005;DHT22;491;53.480;10.174;2023-01-25T07:55:40;-0.10;99.90
1005;DHT22;491;53.480;10.174;2023-01-25T07:58:05;-0.20;99.90
1005;DHT22;491;53.480;10.174;2023-01-25T08:00:31;-0.30;99.90
1005;DHT22;491;53.480;10.174;2023-01-25T08:02:56;-0.20;99.90
1005;DHT22;491;53.480;10.174;2023-01-25T08:05:21;-0.10;99.90
1005;DHT22;491;53.480;10.174;2023-01-25T08:07:47;-0.20;99.90
1005;DHT22;491;53.480;10.174;2023-01-25T08:10:13;-0.20;99.90
1005;DHT22;491;53.480;10.174;2023-01-25T08:12:39;-0.20;99.90
1005;DHT22;491;53.480;10.174;2023-01-25T08:15:04;-0.10;99.90
1005;DHT22;491;53.480;10.174;2023-01-25T08:17:30;-0.20;99.90
1005;DHT22;491;53.480;10.174;2023-01-25T08:19:57;-0.30;99.90
1005;DHT22;491;53.480;10.174;2023-01-25T08:22:23;-0.10;99.90
1005;DHT22;491;53.480;10.174;2023-01-25T08:24:49;-0.20;99.90
1005;DHT22;491;53.480;10.174;2023-01-25T08:27:15;-0.30;99.90
1005;DHT22;491;53.480;10.174;2023-01-25T08:29:40;-0.20;99.90
1005;DHT22;491;53.480;10.174;2023-01-25T08:32:09;-0.10;99.90
1005;DHT22;491;53.480;10.174;2023-01-25T08:34:34;-0.10;99.90
1005;DHT22;491;53.480;10.174;2023-01-25T08:37:00;-0.10;99.90
1005;DHT22;491;53.480;10.174;2023-01-25T08:39:28;-0.20;99.90
1005;DHT22;491;53.480;10.174;2023-01-25T08:41:53;-0.30;99.90
1005;DHT22;491;53.480;10.174;2023-01-25T08:44:19;-0.20;99.90
1005;DHT22;491;53.480;10.174;2023-01-25T08:46:48;-0.20;99.90
1005;DHT22;491;53.480;10.174;2023-01-25T08:49:14;0.10;99.90
1005;DHT22;491;53.480;10.174;2023-01-25T08:51:39;0.00;99.90
1005;DHT22;491;53.480;10.174;2023-01-25T08:54:06;0.00;99.90
1005;DHT22;491;53.480;10.174;2023-01-25T08:56:32;0.00;99.90
1005;DHT22;491;53.480;10.174;2023-01-25T08:58:58;0.20;99.90
1005;DHT22;491;53.480;10.174;2023-01-25T09:01:23;0.10;99.90
1005;DHT22;491;53.480;10.174;2023-01-25T09:03:53;0.00;99.90
1005;DHT22;491;53.480;10.174;2023-01-25T09:06:19;-0.10;99.90
1005;DHT22;491;53.480;10.174;2023-01-25T09:08:45;0.00;99.90
1005;DHT22;491;53.480;10.174;2023-01-25T09:11:13;-0.10;99.90
1005;DHT22;491;53.480;10.174;2023-01-25T09:13:42;0.00;99.90
1005;DHT22;491;53.480;10.174;2023-01-25T09:16:16;-0.10;99.90
1005;DHT22;491;53.480;10.174;2023-01-25T09:18:43;0.10;99.90
1005;DHT22;491;53.480;10.174;2023-01-25T09:23:40;0.00;99.90
1005;DHT22;491;53.480;10.174;2023-01-25T09:26:06;0.00;99.90
1005;DHT22;491;53.480;10.174;2023-01-25T09:28:32;0.30;99.90
1005;DHT22;491;53.480;10.174;2023-01-25T09:31:05;0.30;99.90
1005;DHT22;491;53.480;10.174;2023-01-25T09:33:34;0.30;99.90
1005;DHT22;491;53.480;10.174;2023-01-25T09:36:01;0.30;99.90
1005;DHT22;491;53.480;10.174;2023-01-25T09:38:27;0.20;99.90
1005;DHT22;491;53.480;10.174;2023-01-25T09:46:41;0.20;99.90
1005;DHT22;491;53.480;10.174;2023-01-25T09:55:12;0.10;99.90
1005;DHT22;491;53.480;10.174;2023-01-25T09:57:39;0.10;99.90
1005;DHT22;491;53.480;10.174;2023-01-25T10:03:19;0.10;99.90
1005;DHT22;491;53.480;10.174;2023-01-25T10:05:47;0.10;99.90
1005;DHT22;491;53.480;10.174;2023-01-25T10:08:37;0.00;99.90
1005;DHT22;491;53.480;10.174;2023-01-25T10:11:25;0.20;99.90
1005;DHT22;491;53.480;10.174;2023-01-25T10:13:53;0.20;99.90
1005;DHT22;491;53.480;10.174;2023-01-25T10:16:38;0.30;99.90
1005;DHT22;491;53.480;10.174;2023-01-25T10:19:20;0.30;99.90
1005;DHT22;491;53.480;10.174;2023-01-25T10:22:00;0.30;99.90
1005;DHT22;491;53.480;10.174;2023-01-25T10:24:39;0.40;99.90
1005;DHT22;491;53.480;10.174;2023-01-25T10:27:32;0.50;99.90
1005;DHT22;491;53.480;10.174;2023-01-25T10:30:19;0.50;99.90
1005;DHT22;491;53.480;10.174;2023-01-25T10:32:45;0.50;99.90
1005;DHT22;491;53.480;10.174;2023-01-25T10:35:20;0.50;99.90
1005;DHT22;491;53.480;10.174;2023-01-25T10:37:49;0.50;99.90
1005;DHT22;491;53.480;10.174;2023-01-25T10:40:22;0.40;99.90
1005;DHT22;491;53.480;10.174;2023-01-25T10:42:54;0.30;99.90
1005;DHT22;491;53.480;10.174;2023-01-25T10:45:21;0.30;99.90
1005;DHT22;491;53.480;10.174;2023-01-25T10:47:54;0.20;99.90
1005;DHT22;491;53.480;10.174;2023-01-25T10:50:43;0.20;99.90
1005;DHT22;491;53.480;10.174;2023-01-25T10:53:32;0.20;99.90
1005;DHT22;491;53.480;10.174;2023-01-25T10:58:33;0.20;99.90
1005;DHT22;491;53.480;10.174;2023-01-25T11:00:59;0.40;99.90
1005;DHT22;491;53.480;10.174;2023-01-25T11:03:37;0.40;99.90
1005;DHT22;491;53.480;10.174;2023-01-25T11:06:06;0.40;99.90
1005;DHT22;491;53.480;10.174;2023-01-25T11:08:39;0.40;99.90
1005;DHT22;491;53.480;10.174;2023-01-25T11:11:30;0.50;99.90
1005;DHT22;491;53.480;10.174;2023-01-25T11:13:56;0.40;99.90
1005;DHT22;491;53.480;10.174;2023-01-25T11:16:39;0.40;99.90
1005;DHT22;491;53.480;10.174;2023-01-25T11:19:33;0.40;99.90
1005;DHT22;491;53.480;10.174;2023-01-25T11:22:05;0.40;99.90
1005;DHT22;491;53.480;10.174;2023-01-25T11:24:44;0.30;99.90
1005;DHT22;491;53.480;10.174;2023-01-25T11:27:12;0.30;99.90
1005;DHT22;491;53.480;10.174;2023-01-25T11:29:38;0.40;99.90
1005;DHT22;491;53.480;10.174;2023-01-25T11:32:19;0.40;99.90
1005;DHT22;491;53.480;10.174;2023-01-25T11:34:46;0.40;99.90
1005;DHT22;491;53.480;10.174;2023-01-25T11:37:34;0.30;99.90
1005;DHT22;491;53.480;10.174;2023-01-25T11:40:30;0.40;99.90
1005;DHT22;491;53.480;10.174;2023-01-25T11:45:55;0.40;99.90
1005;DHT22;491;53.480;10.174;2023-01-25T11:54:44;0.50;99.90
1005;DHT22;491;53.480;10.174;2023-01-25T12:00:40;0.50;99.90
1005;DHT22;491;53.480;10.174;2023-01-25T12:05:59;0.40;99.90
1005;DHT22;491;53.480;10.174;2023-01-25T12:14:22;0.30;99.90
1005;DHT22;491;53.480;10.174;2023-01-25T12:16:53;0.50;99.90
1005;DHT22;491;53.480;10.174;2023-01-25T12:19:46;0.50;99.90
1005;DHT22;491;53.480;10.174;2023-01-25T12:22:44;0.40;99.90
1005;DHT22;491;53.480;10.174;2023-01-25T12:25:26;0.40;99.90
1005;DHT22;491;53.480;10.174;2023-01-25T12:28:13;0.40;99.90
1005;DHT22;491;53.480;10.174;2023-01-25T12:34:02;0.30;99.90
1005;DHT22;491;53.480;10.174;2023-01-25T12:36:59;0.40;99.90
1005;DHT22;491;53.480;10.174;2023-01-25T12:39:32;0.40;99.90
1005;DHT22;491;53.480;10.174;2023-01-25T12:42:09;0.20;99.90
1005;DHT22;491;53.480;10.174;2023-01-25T12:44:51;0.30;99.90
1005;DHT22;491;53.480;10.174;2023-01-25T12:52:36;0.60;99.90
1005;DHT22;491;53.480;10.174;2023-01-25T12:55:05;0.40;99.90
1005;DHT22;491;53.480;10.174;2023-01-25T13:00:48;0.50;99.90
1005;DHT22;491;53.480;10.174;2023-01-25T13:06:14;0.40;99.90
1005;DHT22;491;53.480;10.174;2023-01-25T13:08:55;0.40;99.90
1005;DHT22;491;53.480;10.174;2023-01-25T13:11:37;0.40;99.90
1005;DHT22;491;53.480;10.174;2023-01-25T13:16:45;0.30;99.90
1005;DHT22;491;53.480;10.174;2023-01-25T13:21:55;0.40;99.90
1005;DHT22;491;53.480;10.174;2023-01-25T13:24:29;0.30;99.90
1005;DHT22;491;53.480;10.174;2023-01-25T13:32:02;0.20;99.90
1005;DHT22;491;53.480;10.174;2023-01-25T13:37:26;0.30;99.90
1005;DHT22;491;53.480;10.174;2023-01-25T13:42:28;0.40;99.90
1005;DHT22;491;53.480;10.174;2023-01-25T13:45:23;0.40;99.90
1005;DHT22;491;53.480;10.174;2023-01-25T13:48:18;0.50;99.90
1005;DHT22;491;53.480;10.174;2023-01-25T13:50:52;0.50;99.90
1005;DHT22;491;53.480;10.174;2023-01-25T13:53:21;0.40;99.90
1005;DHT22;491;53.480;10.174;2023-01-25T13:55:50;0.30;99.90
1005;DHT22;491;53.480;10.174;2023-01-25T13:58:28;0.40;99.90
1005;DHT22;491;53.480;10.174;2023-01-25T14:00:59;0.30;99.90
1005;DHT22;491;53.480;10.174;2023-01-25T14:03:49;0.20;99.90
1005;DHT22;491;53.480;10.174;2023-01-25T14:06:19;0.10;99.90
1005;DHT22;491;53.480;10.174;2023-01-25T14:08:46;0.30;99.90
1005;DHT22;491;53.480;10.174;2023-01-25T14:11:25;0.20;99.90
1005;DHT22;491;53.480;10.174;2023-01-25T14:14:13;0.30;99.90
1005;DHT22;491;53.480;10.174;2023-01-25T14:16:42;0.40;99.90
1005;DHT22;491;53.480;10.174;2023-01-25T14:19:26;0.30;99.90
1005;DHT22;491;53.480;10.174;2023-01-25T14:25:10;0.40;99.90
1005;DHT22;491;53.480;10.174;2023-01-25T14:27:46;0.40;99.90
1005;DHT22;491;53.480;10.174;2023-01-25T14:30:33;0.40;99.90
1005;DHT22;491;53.480;10.174;2023-01-25T14:33:17;0.80;99.90
1005;DHT22;491;53.480;10.174;2023-01-25T14:35:45;0.90;99.90
1005;DHT22;491;53.480;10.174;2023-01-25T14:38:30;0.50;99.90
1005;DHT22;491;53.480;10.174;2023-01-25T14:41:42;0.40;99.90
1005;DHT22;491;53.480;10.174;2023-01-25T14:43:48;0.30;99.90
1005;DHT22;491;53.480;10.174;2023-01-25T14:52:09;0.20;99.90
1005;DHT22;491;53.480;10.174;2023-01-25T14:57:29;0.20;99.90
1005;DHT22;491;53.480;10.174;2023-01-25T14:59:55;0.10;99.90
1005;DHT22;491;53.480;10.174;2023-01-25T15:05:34;0.10;99.90
1005;DHT22;491;53.480;10.174;2023-01-25T15:07:55;0.10;99.90
1005;DHT22;491;53.480;10.174;2023-01-25T15:10:53;0.10;99.90
1005;DHT22;491;53.480;10.174;2023-01-25T15:14:01;0.10;99.90
1005;DHT22;491;53.480;10.174;2023-01-25T15:16:33;0.10;99.90
1005;DHT22;491;53.480;10.174;2023-01-25T15:18:59;0.00;99.90
1005;DHT22;491;53.480;10.174;2023-01-25T15:21:31;0.10;99.90
1005;DHT22;491;53.480;10.174;2023-01-25T15:24:04;0.10;99.90
1005;DHT22;491;53.480;10.174;2023-01-25T15:26:32;0.00;99.90
1005;DHT22;491;53.480;10.174;2023-01-25T15:29:12;0.10;99.90
1005;DHT22;491;53.480;10.174;2023-01-25T15:31:38;0.10;99.90
1005;DHT22;491;53.480;10.174;2023-01-25T15:34:04;0.10;99.90
1005;DHT22;491;53.480;10.174;2023-01-25T15:36:30;0.00;99.90
1005;DHT22;491;53.480;10.174;2023-01-25T15:38:56;0.00;99.90
1005;DHT22;491;53.480;10.174;2023-01-25T15:41:22;0.10;99.90
1005;DHT22;491;53.480;10.174;2023-01-25T15:43:48;0.00;99.90
1005;DHT22;491;53.480;10.174;2023-01-25T15:46:19;0.10;99.90
1005;DHT22;491;53.480;10.174;2023-01-25T15:48:47;0.10;99.90
1005;DHT22;491;53.480;10.174;2023-01-25T15:51:13;0.00;99.90
1005;DHT22;491;53.480;10.174;2023-01-25T15:53:39;0.00;99.90
1005;DHT22;491;53.480;10.174;2023-01-25T15:56:20;-0.10;99.90
1005;DHT22;491;53.480;10.174;2023-01-25T15:58:53;0.00;99.90
1005;DHT22;491;53.480;10.174;2023-01-25T16:01:20;0.00;99.90
1005;DHT22;491;53.480;10.174;2023-01-25T16:03:45;-0.10;99.90
1005;DHT22;491;53.480;10.174;2023-01-25T16:08:49;-0.20;99.90
1005;DHT22;491;53.480;10.174;2023-01-25T16:11:14;-0.20;99.90
1005;DHT22;491;53.480;10.174;2023-01-25T16:13:40;-0.20;99.90
1005;DHT22;491;53.480;10.174;2023-01-25T16:16:17;-0.20;99.90
1005;DHT22;491;53.480;10.174;2023-01-25T16:18:43;-0.10;99.90
1005;DHT22;491;53.480;10.174;2023-01-25T16:21:10;-0.20;99.90
1005;DHT22;491;53.480;10.174;2023-01-25T16:23:36;-0.20;99.90
1005;DHT22;491;53.480;10.174;2023-01-25T16:26:02;-0.30;99.90
1005;DHT22;491;53.480;10.174;2023-01-25T16:28:28;-0.20;99.90
1005;DHT22;491;53.480;10.174;2023-01-25T16:30:53;-0.20;99.90
1005;DHT22;491;53.480;10.174;2023-01-25T16:33:19;-0.20;99.90
1005;DHT22;491;53.480;10.174;2023-01-25T16:36:03;-0.20;99.90
1005;DHT22;491;53.480;10.174;2023-01-25T16:38:30;-0.30;99.90
1005;DHT22;491;53.480;10.174;2023-01-25T16:41:02;-0.20;99.90
1005;DHT22;491;53.480;10.174;2023-01-25T16:43:28;-0.20;99.90
1005;DHT22;491;53.480;10.174;2023-01-25T16:45:57;-0.20;99.90
1005;DHT22;491;53.480;10.174;2023-01-25T16:48:22;-0.20;99.90
1005;DHT22;491;53.480;10.174;2023-01-25T16:50:49;-0.30;99.90
1005;DHT22;491;53.480;10.174;2023-01-25T16:53:15;-0.30;99.90
1005;DHT22;491;53.480;10.174;2023-01-25T16:55:40;-0.30;99.90
1005;DHT22;491;53.480;10.174;2023-01-25T16:58:06;-0.30;99.90
1005;DHT22;491;53.480;10.174;2023-01-25T17:00:31;-0.30;99.90
1005;DHT22;491;53.480;10.174;2023-01-25T17:02:57;-0.30;99.90
1005;DHT22;491;53.480;10.174;2023-01-25T17:05:23;-0.30;99.90
1005;DHT22;491;53.480;10.174;2023-01-25T17:07:49;-0.40;99.90
1005;DHT22;491;53.480;10.174;2023-01-25T17:10:15;-0.30;99.90
1005;DHT22;491;53.480;10.174;2023-01-25T17:12:41;-0.40;99.90
1005;DHT22;491;53.480;10.174;2023-01-25T17:15:07;-0.50;99.90
1005;DHT22;491;53.480;10.174;2023-01-25T17:17:34;-0.50;99.90
1005;DHT22;491;53.480;10.174;2023-01-25T17:19:59;-0.30;99.90
1005;DHT22;491;53.480;10.174;2023-01-25T17:22:25;-0.30;99.90
1005;DHT22;491;53.480;10.174;2023-01-25T17:24:50;-0.30;99.90
1005;DHT22;491;53.480;10.174;2023-01-25T17:27:16;-0.20;99.90
1005;DHT22;491;53.480;10.174;2023-01-25T17:29:42;-0.30;99.90
1005;DHT22;491;53.480;10.174;2023-01-25T17:32:07;-0.20;99.90
1005;DHT22;491;53.480;10.174;2023-01-25T17:34:33;-0.30;99.90
1005;DHT22;491;53.480;10.174;2023-01-25T17:36:59;-0.30;99.90
1005;DHT22;491;53.480;10.174;2023-01-25T17:39:24;-0.30;99.90
1005;DHT22;491;53.480;10.174;2023-01-25T17:41:50;-0.30;99.90
1005;DHT22;491;53.480;10.174;2023-01-25T17:44:21;-0.30;99.90
1005;DHT22;491;53.480;10.174;2023-01-25T17:46:48;-0.30;99.90
1005;DHT22;491;53.480;10.174;2023-01-25T17:49:14;-0.30;99.90
1005;DHT22;491;53.480;10.174;2023-01-25T17:51:43;-0.40;99.90
1005;DHT22;491;53.480;10.174;2023-01-25T17:54:10;-0.50;99.90
1005;DHT22;491;53.480;10.174;2023-01-25T17:56:35;-0.50;99.90
1005;DHT22;491;53.480;10.174;2023-01-25T17:59:01;-0.50;99.90
1005;DHT22;491;53.480;10.174;2023-01-25T18:01:28;-0.50;99.90
1005;DHT22;491;53.480;10.174;2023-01-25T18:03:56;-0.60;99.90
1005;DHT22;491;53.480;10.174;2023-01-25T18:06:25;-0.40;99.90